createdAt,value
2018-02-21T00:00:38.325Z,980.48
2018-02-21T00:01:38.273Z,980.50
2018-02-21T00:02:38.267Z,980.45
2018-02-21T00:03:38.252Z,980.54
2018-02-21T00:04:38.246Z,980.51
2018-02-21T00:05:38.272Z,980.53
2018-02-21T00:06:38.225Z,980.51
2018-02-21T00:07:38.213Z,980.53
2018-02-21T00:08:38.215Z,980.49
2018-02-21T00:09:38.237Z,980.54
2018-02-21T00:10:38.183Z,980.56
2018-02-21T00:11:38.174Z,980.59
2018-02-21T00:12:38.163Z,980.57
2018-02-21T00:13:38.154Z,980.60
2018-02-21T00:14:38.201Z,980.58
2018-02-21T00:15:38.135Z,980.56
2018-02-21T00:16:38.122Z,980.56
2018-02-21T00:17:38.114Z,980.55
2018-02-21T00:18:38.104Z,980.57
2018-02-21T00:19:38.151Z,980.54
2018-02-21T00:20:38.084Z,980.61
2018-02-21T00:21:38.074Z,980.60
2018-02-21T00:22:38.125Z,980.59
2018-02-21T00:23:38.051Z,980.61
2018-02-21T00:24:38.083Z,980.60
2018-02-21T00:25:38.032Z,980.60
2018-02-21T00:26:38.021Z,980.63
2018-02-21T00:27:38.016Z,980.62
2018-02-21T00:28:37.999Z,980.62
2018-02-21T00:29:38.031Z,980.62
2018-02-21T00:30:37.984Z,980.64
2018-02-21T00:31:37.969Z,980.65
2018-02-21T00:32:37.962Z,980.64
2018-02-21T00:33:37.947Z,980.65
2018-02-21T00:34:37.977Z,980.65
2018-02-21T00:35:37.929Z,980.64
2018-02-21T00:36:37.922Z,980.61
2018-02-21T00:37:37.914Z,980.62
2018-02-21T00:38:37.898Z,980.62
2018-02-21T00:39:37.940Z,980.58
2018-02-21T00:40:37.880Z,980.62
2018-02-21T00:41:37.871Z,980.66
2018-02-21T00:42:37.859Z,980.61
2018-02-21T00:43:37.855Z,980.58
2018-02-21T00:44:37.838Z,980.61
2018-02-21T00:45:37.883Z,980.60
2018-02-21T00:46:37.817Z,980.59
2018-02-21T00:47:37.807Z,980.62
2018-02-21T00:48:37.794Z,980.63
2018-02-21T00:49:37.825Z,980.67
2018-02-21T00:50:37.775Z,980.70
2018-02-21T00:51:37.807Z,980.76
2018-02-21T00:52:37.769Z,980.71
2018-02-21T00:53:37.744Z,980.77
2018-02-21T00:54:37.732Z,980.77
2018-02-21T00:55:37.764Z,980.79
2018-02-21T00:56:37.713Z,980.81
2018-02-21T00:57:37.701Z,980.78
2018-02-21T00:58:37.690Z,980.81
2018-02-21T00:59:37.679Z,980.81
2018-02-21T01:00:37.726Z,980.85
2018-02-21T01:01:37.667Z,980.85
2018-02-21T01:02:37.650Z,980.88
2018-02-21T01:03:37.641Z,980.87
2018-02-21T01:04:37.669Z,980.91
2018-02-21T01:05:37.654Z,980.92
2018-02-21T01:06:37.609Z,980.96
2018-02-21T01:07:37.596Z,980.96
2018-02-21T01:08:37.584Z,980.97
2018-02-21T01:09:37.577Z,981.01
2018-02-21T01:10:37.609Z,981.01
2018-02-21T01:11:37.552Z,981.01
2018-02-21T01:12:37.543Z,981.02
2018-02-21T01:13:37.532Z,981.09
2018-02-21T01:14:37.526Z,981.06
2018-02-21T01:15:37.553Z,981.09
2018-02-21T01:16:37.501Z,981.12
2018-02-21T01:17:37.495Z,981.12
2018-02-21T01:18:37.480Z,981.18
2018-02-21T01:19:37.471Z,981.12
2018-02-21T01:20:37.496Z,981.19
2018-02-21T01:21:37.447Z,981.15
2018-02-21T01:22:37.447Z,981.14
2018-02-21T01:23:37.435Z,981.16
2018-02-21T01:24:37.415Z,981.14
2018-02-21T01:25:37.445Z,981.10
2018-02-21T01:26:37.394Z,981.11
2018-02-21T01:27:37.384Z,981.13
2018-02-21T01:28:37.426Z,981.16
2018-02-21T01:29:37.367Z,981.12
2018-02-21T01:30:37.439Z,981.10
2018-02-21T01:31:37.372Z,981.13
2018-02-21T01:32:37.337Z,981.18
2018-02-21T01:33:37.364Z,981.19
2018-02-21T01:34:37.312Z,981.16
2018-02-21T01:35:37.297Z,981.20
2018-02-21T01:36:37.330Z,981.21
2018-02-21T01:37:37.279Z,981.25
2018-02-21T01:38:37.264Z,981.23
2018-02-21T01:39:37.255Z,981.27
2018-02-21T01:40:37.313Z,981.25
2018-02-21T01:41:37.235Z,981.30
2018-02-21T01:42:37.227Z,981.29
2018-02-21T01:43:37.211Z,981.27
2018-02-21T01:44:37.204Z,981.31
2018-02-21T01:45:37.193Z,981.31
2018-02-21T01:46:37.239Z,981.27
2018-02-21T01:47:37.171Z,981.29
2018-02-21T01:48:37.199Z,981.31
2018-02-21T01:49:37.151Z,981.31
2018-02-21T01:50:37.139Z,981.34
2018-02-21T01:51:37.129Z,981.34
2018-02-21T01:52:37.155Z,981.31
2018-02-21T01:53:37.105Z,981.27
2018-02-21T01:54:37.094Z,981.29
2018-02-21T01:55:37.082Z,981.33
2018-02-21T01:56:37.071Z,981.34
2018-02-21T01:57:37.122Z,981.39
2018-02-21T01:58:37.093Z,981.37
2018-02-21T01:59:37.041Z,981.37
2018-02-21T02:00:37.032Z,981.39
2018-02-21T02:01:37.069Z,981.35
2018-02-21T02:02:37.008Z,981.36
2018-02-21T02:03:36.996Z,981.34
2018-02-21T02:04:36.986Z,981.34
2018-02-21T02:05:36.976Z,981.33
2018-02-21T02:06:36.967Z,981.36
2018-02-21T02:07:36.999Z,981.38
2018-02-21T02:08:36.947Z,981.34
2018-02-21T02:09:36.934Z,981.37
2018-02-21T02:10:36.922Z,981.30
2018-02-21T02:11:36.952Z,981.32
2018-02-21T02:12:36.901Z,981.34
2018-02-21T02:13:36.892Z,981.35
2018-02-21T02:14:36.880Z,981.36
2018-02-21T02:15:36.867Z,981.34
2018-02-21T02:16:36.915Z,981.35
2018-02-21T02:17:36.847Z,981.35
2018-02-21T02:18:36.871Z,981.39
2018-02-21T02:19:37.339Z,981.40
2018-02-21T02:20:36.814Z,981.38
2018-02-21T02:21:36.805Z,981.41
2018-02-21T02:22:36.829Z,981.42
2018-02-21T02:23:36.784Z,981.42
2018-02-21T02:24:36.773Z,981.42
2018-02-21T02:25:36.761Z,981.45
2018-02-21T02:26:36.750Z,981.47
2018-02-21T02:27:36.779Z,981.51
2018-02-21T02:28:36.726Z,981.47
2018-02-21T02:29:36.714Z,981.51
2018-02-21T02:30:37.393Z,981.49
2018-02-21T02:31:36.694Z,981.52
2018-02-21T02:32:36.727Z,981.49
2018-02-21T02:33:36.675Z,981.52
2018-02-21T02:34:36.661Z,981.52
2018-02-21T02:35:36.649Z,981.53
2018-02-21T02:36:36.642Z,981.51
2018-02-21T02:37:36.686Z,981.52
2018-02-21T02:38:36.623Z,981.57
2018-02-21T02:39:36.609Z,981.56
2018-02-21T02:40:36.594Z,981.53
2018-02-21T02:41:36.586Z,981.53
2018-02-21T02:42:36.573Z,981.56
2018-02-21T02:43:36.608Z,981.60
2018-02-21T02:44:36.554Z,981.62
2018-02-21T02:45:36.545Z,981.62
2018-02-21T02:46:36.530Z,981.67
2018-02-21T02:47:36.516Z,981.68
2018-02-21T02:48:36.549Z,981.67
2018-02-21T02:49:36.497Z,981.68
2018-02-21T02:50:36.493Z,981.70
2018-02-21T02:51:36.474Z,981.71
2018-02-21T02:52:37.430Z,981.73
2018-02-21T02:53:36.455Z,981.72
2018-02-21T02:54:36.445Z,981.71
2018-02-21T02:55:36.432Z,981.69
2018-02-21T02:56:36.422Z,981.73
2018-02-21T02:57:36.447Z,981.73
2018-02-21T02:58:36.399Z,981.71
2018-02-21T02:59:36.387Z,981.75
2018-02-21T03:00:36.375Z,981.75
2018-02-21T03:01:36.366Z,981.77
2018-02-21T03:02:36.396Z,981.78
2018-02-21T03:03:36.342Z,981.76
2018-02-21T03:04:36.334Z,981.82
2018-02-21T03:05:36.322Z,981.82
2018-02-21T03:06:36.310Z,981.84
2018-02-21T03:07:36.334Z,981.83
2018-02-21T03:08:36.286Z,981.86
2018-02-21T03:09:36.281Z,981.89
2018-02-21T03:10:36.265Z,981.86
2018-02-21T03:11:36.256Z,981.88
2018-02-21T03:12:36.283Z,981.91
2018-02-21T03:13:36.237Z,981.94
2018-02-21T03:14:36.218Z,981.93
2018-02-21T03:15:36.209Z,981.95
2018-02-21T03:16:36.201Z,981.99
2018-02-21T03:17:36.225Z,981.94
2018-02-21T03:18:36.177Z,981.93
2018-02-21T03:19:36.165Z,981.91
2018-02-21T03:20:36.158Z,981.94
2018-02-21T03:21:36.144Z,981.95
2018-02-21T03:22:36.230Z,982.00
2018-02-21T03:23:36.120Z,981.96
2018-02-21T03:24:36.110Z,981.98
2018-02-21T03:25:36.099Z,982.01
2018-02-21T03:26:36.088Z,981.95
2018-02-21T03:27:36.130Z,981.96
2018-02-21T03:28:36.065Z,981.95
2018-02-21T03:29:36.053Z,981.98
2018-02-21T03:30:36.048Z,981.97
2018-02-21T03:31:36.035Z,982.00
2018-02-21T03:32:36.020Z,982.00
2018-02-21T03:33:36.051Z,982.00
2018-02-21T03:34:36.025Z,982.00
2018-02-21T03:35:35.986Z,982.03
2018-02-21T03:36:35.977Z,982.05
2018-02-21T03:37:35.964Z,982.10
2018-02-21T03:38:35.992Z,982.07
2018-02-21T03:39:35.942Z,982.07
2018-02-21T03:40:35.934Z,982.10
2018-02-21T03:41:35.922Z,982.11
2018-02-21T03:42:35.968Z,982.10
2018-02-21T03:43:35.900Z,982.09
2018-02-21T03:44:35.887Z,982.11
2018-02-21T03:45:35.875Z,982.14
2018-02-21T03:46:35.903Z,982.10
2018-02-21T03:47:35.854Z,982.09
2018-02-21T03:48:35.897Z,982.13
2018-02-21T03:49:35.854Z,982.13
2018-02-21T03:50:35.818Z,982.13
2018-02-21T03:51:35.809Z,982.16
2018-02-21T03:52:35.798Z,982.14
2018-02-21T03:53:35.826Z,982.15
2018-02-21T03:54:35.776Z,982.15
2018-02-21T03:55:35.763Z,982.15
2018-02-21T03:56:35.753Z,982.18
2018-02-21T03:57:35.744Z,982.19
2018-02-21T03:58:35.797Z,982.20
2018-02-21T03:59:35.725Z,982.20
2018-02-21T04:00:35.708Z,982.17
2018-02-21T04:01:35.695Z,982.16
2018-02-21T04:02:35.686Z,982.21
2018-02-21T04:03:35.715Z,982.21
2018-02-21T04:04:35.662Z,982.22
2018-02-21T04:05:35.654Z,982.24
2018-02-21T04:06:35.644Z,982.22
2018-02-21T04:07:35.636Z,982.26
2018-02-21T04:08:35.657Z,982.23
2018-02-21T04:09:35.608Z,982.22
2018-02-21T04:10:35.596Z,982.23
2018-02-21T04:11:35.584Z,982.23
2018-02-21T04:12:35.575Z,982.19
2018-02-21T04:13:35.607Z,982.17
2018-02-21T04:14:35.557Z,982.17
2018-02-21T04:15:35.552Z,982.16
2018-02-21T04:16:35.526Z,982.17
2018-02-21T04:17:35.518Z,982.17
2018-02-21T04:18:35.564Z,982.18
2018-02-21T04:19:35.496Z,982.19
2018-02-21T04:20:35.487Z,982.22
2018-02-21T04:21:35.517Z,982.19
2018-02-21T04:22:35.506Z,982.21
2018-02-21T04:23:36.309Z,982.21
2018-02-21T04:24:35.456Z,982.24
2018-02-21T04:25:35.430Z,982.26
2018-02-21T04:26:35.418Z,982.22
2018-02-21T04:27:35.446Z,982.27
2018-02-21T04:28:35.398Z,982.26
2018-02-21T04:29:35.385Z,982.24
2018-02-21T04:30:37.118Z,982.25
2018-02-21T04:31:35.360Z,982.25
2018-02-21T04:32:35.389Z,982.24
2018-02-21T04:33:35.339Z,982.30
2018-02-21T04:34:35.403Z,982.27
2018-02-21T04:35:35.318Z,982.27
2018-02-21T04:36:35.307Z,982.30
2018-02-21T04:37:35.355Z,982.33
2018-02-21T04:38:35.284Z,982.31
2018-02-21T04:39:35.270Z,982.37
2018-02-21T04:40:35.263Z,982.34
2018-02-21T04:41:35.292Z,982.36
2018-02-21T04:42:35.281Z,982.37
2018-02-21T04:43:35.231Z,982.34
2018-02-21T04:44:35.219Z,982.36
2018-02-21T04:45:35.205Z,982.37
2018-02-21T04:46:35.197Z,982.39
2018-02-21T04:47:35.225Z,982.39
2018-02-21T04:48:35.170Z,982.44
2018-02-21T04:49:35.160Z,982.33
2018-02-21T04:50:35.148Z,982.33
2018-02-21T04:51:35.141Z,982.32
2018-02-21T04:52:35.187Z,982.29
2018-02-21T04:53:35.116Z,982.28
2018-02-21T04:54:35.107Z,982.28
2018-02-21T04:55:35.091Z,982.26
2018-02-21T04:56:35.139Z,982.27
2018-02-21T04:57:35.071Z,982.28
2018-02-21T04:58:35.060Z,982.30
2018-02-21T04:59:35.049Z,982.27
2018-02-21T05:00:35.064Z,982.28
2018-02-21T05:01:35.066Z,982.30
2018-02-21T05:02:35.051Z,982.31
2018-02-21T05:03:35.000Z,982.36
2018-02-21T05:04:34.989Z,982.34
2018-02-21T05:05:34.979Z,982.36
2018-02-21T05:06:34.972Z,982.35
2018-02-21T05:07:35.000Z,982.36
2018-02-21T05:08:34.942Z,982.33
2018-02-21T05:09:34.935Z,982.32
2018-02-21T05:10:34.926Z,982.34
2018-02-21T05:11:34.908Z,982.37
2018-02-21T05:12:34.939Z,982.39
2018-02-21T05:13:34.922Z,982.40
2018-02-21T05:14:34.876Z,982.38
2018-02-21T05:15:34.866Z,982.44
2018-02-21T05:16:34.893Z,982.41
2018-02-21T05:17:34.880Z,982.42
2018-02-21T05:18:34.831Z,982.40
2018-02-21T05:19:34.819Z,982.42
2018-02-21T05:20:34.806Z,982.44
2018-02-21T05:21:34.804Z,982.45
2018-02-21T05:22:34.842Z,982.43
2018-02-21T05:23:34.772Z,982.46
2018-02-21T05:24:34.767Z,982.46
2018-02-21T05:25:34.795Z,982.41
2018-02-21T05:26:34.739Z,982.47
2018-02-21T05:27:34.765Z,982.47
2018-02-21T05:28:34.719Z,982.47
2018-02-21T05:29:34.705Z,982.49
2018-02-21T05:30:34.758Z,982.49
2018-02-21T05:31:34.682Z,982.50
2018-02-21T05:32:34.710Z,982.49
2018-02-21T05:33:34.662Z,982.50
2018-02-21T05:34:34.646Z,982.47
2018-02-21T05:35:34.638Z,982.47
2018-02-21T05:36:34.649Z,982.46
2018-02-21T05:37:34.700Z,982.48
2018-02-21T05:38:34.603Z,982.45
2018-02-21T05:39:34.590Z,982.46
2018-02-21T05:40:34.579Z,982.40
2018-02-21T05:41:34.562Z,982.39
2018-02-21T05:42:34.594Z,982.37
2018-02-21T05:43:34.542Z,982.33
2018-02-21T05:44:34.534Z,982.35
2018-02-21T05:45:34.522Z,982.33
2018-02-21T05:46:34.508Z,982.29
2018-02-21T05:47:34.554Z,982.29
2018-02-21T05:48:34.484Z,982.24
2018-02-21T05:49:34.476Z,982.25
2018-02-21T05:50:34.502Z,982.22
2018-02-21T05:51:34.452Z,982.25
2018-02-21T05:52:34.443Z,982.23
2018-02-21T05:53:34.431Z,982.22
2018-02-21T05:54:34.457Z,982.21
2018-02-21T05:55:35.053Z,982.22
2018-02-21T05:56:34.395Z,982.25
2018-02-21T05:57:34.382Z,982.25
2018-02-21T05:58:34.371Z,982.29
2018-02-21T05:59:34.410Z,982.28
2018-02-21T06:00:34.351Z,982.28
2018-02-21T06:01:34.341Z,982.27
2018-02-21T06:02:34.325Z,982.27
2018-02-21T06:03:34.311Z,982.27
2018-02-21T06:04:34.342Z,982.26
2018-02-21T06:05:34.293Z,982.25
2018-02-21T06:06:34.279Z,982.25
2018-02-21T06:07:34.266Z,982.25
2018-02-21T06:08:34.812Z,982.28
2018-02-21T06:09:34.285Z,982.28
2018-02-21T06:10:34.234Z,982.28
2018-02-21T06:11:34.222Z,982.30
2018-02-21T06:12:34.212Z,982.31
2018-02-21T06:13:34.202Z,982.31
2018-02-21T06:14:34.227Z,982.31
2018-02-21T06:15:34.180Z,982.31
2018-02-21T06:16:34.168Z,982.28
2018-02-21T06:17:34.156Z,982.30
2018-02-21T06:18:34.184Z,982.27
2018-02-21T06:19:34.189Z,982.25
2018-02-21T06:20:34.122Z,982.23
2018-02-21T06:21:34.107Z,982.18
2018-02-21T06:22:34.099Z,982.17
2018-02-21T06:23:34.085Z,982.16
2018-02-21T06:24:34.113Z,982.11
2018-02-21T06:25:34.102Z,982.11
2018-02-21T06:26:34.053Z,982.10
2018-02-21T06:27:34.040Z,982.08
2018-02-21T06:28:34.030Z,982.07
2018-02-21T06:29:34.019Z,982.07
2018-02-21T06:30:34.066Z,982.04
2018-02-21T06:31:33.999Z,982.06
2018-02-21T06:32:33.984Z,982.05
2018-02-21T06:33:33.973Z,982.06
2018-02-21T06:34:33.966Z,982.05
2018-02-21T06:35:33.994Z,982.01
2018-02-21T06:36:33.943Z,982.02
2018-02-21T06:37:33.933Z,981.98
2018-02-21T06:38:33.920Z,982.00
2018-02-21T06:39:33.958Z,982.01
2018-02-21T06:40:33.899Z,982.01
2018-02-21T06:41:33.889Z,982.00
2018-02-21T06:42:33.876Z,982.02
2018-02-21T06:43:33.866Z,982.00
2018-02-21T06:44:33.854Z,981.98
2018-02-21T06:45:33.889Z,982.01
2018-02-21T06:46:33.835Z,981.96
2018-02-21T06:47:33.822Z,982.03
2018-02-21T06:48:33.812Z,982.04
2018-02-21T06:49:33.801Z,982.00
2018-02-21T06:50:33.849Z,982.02
2018-02-21T06:51:33.780Z,982.02
2018-02-21T06:52:33.769Z,982.05
2018-02-21T06:53:33.760Z,982.00
2018-02-21T06:54:33.837Z,982.02
2018-02-21T06:55:33.736Z,982.01
2018-02-21T06:56:33.767Z,982.02
2018-02-21T06:57:33.718Z,982.03
2018-02-21T06:58:33.705Z,982.03
2018-02-21T06:59:33.697Z,982.03
2018-02-21T07:00:33.688Z,982.03
2018-02-21T07:01:33.717Z,982.05
2018-02-21T07:02:33.666Z,982.10
2018-02-21T07:03:33.655Z,982.14
2018-02-21T07:04:33.643Z,982.17
2018-02-21T07:05:33.636Z,982.23
2018-02-21T07:06:33.666Z,982.29
2018-02-21T07:07:33.612Z,982.41
2018-02-21T07:08:33.602Z,982.48
2018-02-21T07:09:33.594Z,982.56
2018-02-21T07:10:33.582Z,982.64
2018-02-21T07:11:33.611Z,982.69
2018-02-21T07:12:33.565Z,982.71
2018-02-21T07:13:33.553Z,982.67
2018-02-21T07:14:33.544Z,982.68
2018-02-21T07:15:33.555Z,982.64
2018-02-21T07:16:33.569Z,982.63
2018-02-21T07:17:33.515Z,982.60
2018-02-21T07:18:33.537Z,982.62
2018-02-21T07:19:33.497Z,982.59
2018-02-21T07:20:33.487Z,982.61
2018-02-21T07:21:33.522Z,982.62
2018-02-21T07:22:33.466Z,982.66
2018-02-21T07:23:33.460Z,982.65
2018-02-21T07:24:33.447Z,982.61
2018-02-21T07:25:33.445Z,982.62
2018-02-21T07:26:33.468Z,982.62
2018-02-21T07:27:33.418Z,982.60
2018-02-21T07:28:33.411Z,982.62
2018-02-21T07:29:33.401Z,982.60
2018-02-21T07:30:33.391Z,982.61
2018-02-21T07:31:33.422Z,982.63
2018-02-21T07:32:33.373Z,982.62
2018-02-21T07:33:33.367Z,982.61
2018-02-21T07:34:33.359Z,982.59
2018-02-21T07:35:33.349Z,982.63
2018-02-21T07:36:33.385Z,982.62
2018-02-21T07:37:33.333Z,982.64
2018-02-21T07:38:33.323Z,982.68
2018-02-21T07:39:33.312Z,982.72
2018-02-21T07:40:33.300Z,982.75
2018-02-21T07:41:33.333Z,982.73
2018-02-21T07:42:33.286Z,982.78
2018-02-21T07:43:34.024Z,982.73
2018-02-21T07:44:33.272Z,982.70
2018-02-21T07:45:33.262Z,982.76
2018-02-21T07:46:33.292Z,982.71
2018-02-21T07:47:33.244Z,982.76
2018-02-21T07:48:33.229Z,982.81
2018-02-21T07:49:33.223Z,982.83
2018-02-21T07:50:33.216Z,982.80
2018-02-21T07:51:33.244Z,982.81
2018-02-21T07:52:33.197Z,982.78
2018-02-21T07:53:33.336Z,982.79
2018-02-21T07:54:33.188Z,982.80
2018-02-21T07:55:33.173Z,982.78
2018-02-21T07:56:33.206Z,982.82
2018-02-21T07:57:33.157Z,982.87
2018-02-21T07:58:33.146Z,982.90
2018-02-21T07:59:33.154Z,982.93
2018-02-21T08:00:33.135Z,982.96
2018-02-21T08:01:33.173Z,982.97
2018-02-21T08:02:33.114Z,982.96
2018-02-21T08:03:33.106Z,982.96
2018-02-21T08:04:33.100Z,982.94
2018-02-21T08:05:33.092Z,982.97
2018-02-21T08:06:33.104Z,982.95
2018-02-21T08:07:33.115Z,983.02
2018-02-21T08:08:33.067Z,982.99
2018-02-21T08:09:33.057Z,983.05
2018-02-21T08:10:33.052Z,982.98
2018-02-21T08:11:33.045Z,983.02
2018-02-21T08:12:33.078Z,982.99
2018-02-21T08:13:33.029Z,982.99
2018-02-21T08:14:33.022Z,983.03
2018-02-21T08:15:33.019Z,982.99
2018-02-21T08:16:33.005Z,982.98
2018-02-21T08:17:33.053Z,983.03
2018-02-21T08:18:32.992Z,983.00
2018-02-21T08:19:33.032Z,983.04
2018-02-21T08:20:32.981Z,983.03
2018-02-21T08:21:32.970Z,983.07
2018-02-21T08:22:33.011Z,983.11
2018-02-21T08:23:32.950Z,983.11
2018-02-21T08:24:32.948Z,983.18
2018-02-21T08:25:32.939Z,983.15
2018-02-21T08:26:32.932Z,983.17
2018-02-21T08:27:32.962Z,983.20
2018-02-21T08:28:32.916Z,983.21
2018-02-21T08:29:32.909Z,983.23
2018-02-21T08:30:32.902Z,983.25
2018-02-21T08:31:33.400Z,983.29
2018-02-21T08:32:32.935Z,983.27
2018-02-21T08:33:32.881Z,983.31
2018-02-21T08:34:32.874Z,983.34
2018-02-21T08:35:32.864Z,983.34
2018-02-21T08:36:32.862Z,983.32
2018-02-21T08:37:32.894Z,983.31
2018-02-21T08:38:32.844Z,983.33
2018-02-21T08:39:32.837Z,983.35
2018-02-21T08:40:32.829Z,983.39
2018-02-21T08:41:32.828Z,983.37
2018-02-21T08:42:32.867Z,983.41
2018-02-21T08:43:32.816Z,983.44
2018-02-21T08:44:32.802Z,983.44
2018-02-21T08:45:32.795Z,983.42
2018-02-21T08:46:32.788Z,983.39
2018-02-21T08:47:32.779Z,983.39
2018-02-21T08:48:32.812Z,983.40
2018-02-21T08:49:32.768Z,983.38
2018-02-21T08:50:32.757Z,983.44
2018-02-21T08:51:32.753Z,983.43
2018-02-21T08:52:32.805Z,983.44
2018-02-21T08:53:32.779Z,983.45
2018-02-21T08:54:32.733Z,983.52
2018-02-21T08:55:33.398Z,983.49
2018-02-21T08:56:32.718Z,983.51
2018-02-21T08:57:32.748Z,983.56
2018-02-21T08:58:32.707Z,983.50
2018-02-21T08:59:32.694Z,983.58
2018-02-21T09:00:32.689Z,983.57
2018-02-21T09:01:32.683Z,983.58
2018-02-21T09:02:32.732Z,983.59
2018-02-21T09:03:32.727Z,983.64
2018-02-21T09:04:32.663Z,983.63
2018-02-21T09:05:32.657Z,983.62
2018-02-21T09:06:32.676Z,983.60
2018-02-21T09:07:32.643Z,983.62
2018-02-21T09:08:32.694Z,983.62
2018-02-21T09:09:32.628Z,983.65
2018-02-21T09:10:32.626Z,983.68
2018-02-21T09:11:32.617Z,983.71
2018-02-21T09:12:32.612Z,983.68
2018-02-21T09:13:32.660Z,983.72
2018-02-21T09:14:32.599Z,983.70
2018-02-21T09:15:32.591Z,983.74
2018-02-21T09:16:32.594Z,983.71
2018-02-21T09:17:32.580Z,983.71
2018-02-21T09:18:32.613Z,983.72
2018-02-21T09:19:32.604Z,983.67
2018-02-21T09:20:32.559Z,983.69
2018-02-21T09:21:32.570Z,983.74
2018-02-21T09:22:32.547Z,983.76
2018-02-21T09:23:33.380Z,983.72
2018-02-21T09:24:32.572Z,983.79
2018-02-21T09:25:32.526Z,983.72
2018-02-21T09:26:32.518Z,983.77
2018-02-21T09:27:32.517Z,983.84
2018-02-21T09:28:32.507Z,983.84
2018-02-21T09:29:32.540Z,983.89
2018-02-21T09:30:32.496Z,983.87
2018-02-21T09:31:32.489Z,983.83
2018-02-21T09:32:33.012Z,983.83
2018-02-21T09:33:32.474Z,983.84
2018-02-21T09:34:32.522Z,983.80
2018-02-21T09:35:32.462Z,983.83
2018-02-21T09:36:32.455Z,983.81
2018-02-21T09:37:32.447Z,983.81
2018-02-21T09:38:32.440Z,983.80
2018-02-21T09:39:32.492Z,983.80
2018-02-21T09:40:32.427Z,983.74
2018-02-21T09:41:32.423Z,983.79
2018-02-21T09:42:32.418Z,983.79
2018-02-21T09:43:32.410Z,983.73
2018-02-21T09:44:32.457Z,983.72
2018-02-21T09:45:32.402Z,983.68
2018-02-21T09:46:32.391Z,983.70
2018-02-21T09:47:32.384Z,983.69
2018-02-21T09:48:32.385Z,983.69
2018-02-21T09:49:32.376Z,983.68
2018-02-21T09:50:32.406Z,983.67
2018-02-21T09:51:32.365Z,983.69
2018-02-21T09:52:32.360Z,983.71
2018-02-21T09:53:32.350Z,983.73
2018-02-21T09:54:32.560Z,983.69
2018-02-21T09:55:32.962Z,983.72
2018-02-21T09:56:32.336Z,983.70
2018-02-21T09:57:32.331Z,983.69
2018-02-21T09:58:32.326Z,983.70
2018-02-21T09:59:32.357Z,983.69
2018-02-21T10:00:32.313Z,983.69
2018-02-21T10:01:32.307Z,983.69
2018-02-21T10:02:32.302Z,983.71
2018-02-21T10:03:32.297Z,983.71
2018-02-21T10:04:32.366Z,983.67
2018-02-21T10:05:32.285Z,983.67
2018-02-21T10:06:32.279Z,983.72
2018-02-21T10:07:32.407Z,983.69
2018-02-21T10:08:32.269Z,983.71
2018-02-21T10:09:32.306Z,983.71
2018-02-21T10:10:32.342Z,983.69
2018-02-21T10:11:32.256Z,983.72
2018-02-21T10:12:32.278Z,983.73
2018-02-21T10:13:32.267Z,983.68
2018-02-21T10:14:32.282Z,983.63
2018-02-21T10:15:32.235Z,983.73
2018-02-21T10:16:32.229Z,983.67
2018-02-21T10:17:32.228Z,983.65
2018-02-21T10:18:32.242Z,983.62
2018-02-21T10:19:32.286Z,983.58
2018-02-21T10:20:32.218Z,983.67
2018-02-21T10:21:32.212Z,983.67
2018-02-21T10:22:32.203Z,983.66
2018-02-21T10:23:32.201Z,983.61
2018-02-21T10:24:32.273Z,983.78
2018-02-21T10:25:32.228Z,983.65
2018-02-21T10:26:32.250Z,983.78
2018-02-21T10:27:32.204Z,983.65
2018-02-21T10:28:32.187Z,983.63
2018-02-21T10:29:32.241Z,983.55
2018-02-21T10:30:32.209Z,983.55
2018-02-21T10:31:33.252Z,983.55
2018-02-21T10:32:32.272Z,983.50
2018-02-21T10:33:32.172Z,983.53
2018-02-21T10:34:33.109Z,983.51
2018-02-21T10:35:32.167Z,983.60
2018-02-21T10:36:32.181Z,983.55
2018-02-21T10:37:32.179Z,983.58
2018-02-21T10:38:32.251Z,983.73
2018-02-21T10:39:32.213Z,983.59
2018-02-21T10:40:32.151Z,983.65
2018-02-21T10:41:32.150Z,983.55
2018-02-21T10:42:32.147Z,983.53
2018-02-21T10:43:32.193Z,983.49
2018-02-21T10:44:32.202Z,983.57
2018-02-21T10:45:32.140Z,983.53
2018-02-21T10:46:32.138Z,983.68
2018-02-21T10:47:32.138Z,983.48
2018-02-21T10:48:32.189Z,983.40
2018-02-21T10:49:32.196Z,983.46
2018-02-21T10:50:32.134Z,983.39
2018-02-21T10:51:32.140Z,983.38
2018-02-21T10:52:32.135Z,983.38
2018-02-21T10:53:32.130Z,983.33
2018-02-21T10:54:32.187Z,983.30
2018-02-21T10:55:32.139Z,983.49
2018-02-21T10:56:32.151Z,983.61
2018-02-21T10:57:32.124Z,983.56
2018-02-21T10:58:32.123Z,983.60
2018-02-21T10:59:32.161Z,983.36
2018-02-21T11:00:32.121Z,983.27
2018-02-21T11:01:32.123Z,983.53
2018-02-21T11:02:32.120Z,983.53
2018-02-21T11:03:32.123Z,983.54
2018-02-21T11:04:32.165Z,983.52
2018-02-21T11:05:32.128Z,983.46
2018-02-21T11:06:32.128Z,983.42
2018-02-21T11:07:32.136Z,983.43
2018-02-21T11:08:32.135Z,983.40
2018-02-21T11:09:32.178Z,983.43
2018-02-21T11:10:32.141Z,983.36
2018-02-21T11:11:32.144Z,983.44
2018-02-21T11:12:32.152Z,983.40
2018-02-21T11:13:32.157Z,983.10
2018-02-21T11:14:32.203Z,983.10
2018-02-21T11:15:32.166Z,983.13
2018-02-21T11:16:32.170Z,983.13
2018-02-21T11:17:32.174Z,983.14
2018-02-21T11:18:32.182Z,983.11
2018-02-21T11:19:32.240Z,983.11
2018-02-21T11:20:32.185Z,983.14
2018-02-21T11:21:32.187Z,983.43
2018-02-21T11:22:32.229Z,983.30
2018-02-21T11:23:32.229Z,983.42
2018-02-21T11:24:32.233Z,983.41
2018-02-21T11:25:32.202Z,983.09
2018-02-21T11:26:32.199Z,983.25
2018-02-21T11:27:32.201Z,983.43
2018-02-21T11:28:32.204Z,983.36
2018-02-21T11:29:32.242Z,983.38
2018-02-21T11:30:32.214Z,983.35
2018-02-21T11:31:32.214Z,983.40
2018-02-21T11:32:32.215Z,983.33
2018-02-21T11:33:32.260Z,983.33
2018-02-21T11:34:32.227Z,983.19
2018-02-21T11:35:32.228Z,983.33
2018-02-21T11:36:32.327Z,983.08
2018-02-21T11:37:32.237Z,983.01
2018-02-21T11:38:32.282Z,983.03
2018-02-21T11:39:32.245Z,983.17
2018-02-21T11:40:32.250Z,982.95
2018-02-21T11:41:32.252Z,983.04
2018-02-21T11:42:32.310Z,983.29
2018-02-21T11:43:32.319Z,983.25
2018-02-21T11:44:32.266Z,983.30
2018-02-21T11:45:32.270Z,983.24
2018-02-21T11:46:32.274Z,983.26
2018-02-21T11:47:32.315Z,983.29
2018-02-21T11:48:33.177Z,983.30
2018-02-21T11:49:32.282Z,983.27
2018-02-21T11:50:32.331Z,983.34
2018-02-21T11:51:32.288Z,983.32
2018-02-21T11:52:32.292Z,983.31
2018-02-21T11:53:32.354Z,983.32
2018-02-21T11:54:32.302Z,983.25
2018-02-21T11:55:32.311Z,983.19
2018-02-21T11:56:32.316Z,983.25
2018-02-21T11:57:32.358Z,983.20
2018-02-21T11:58:32.365Z,983.27
2018-02-21T11:59:32.335Z,983.22
2018-02-21T12:00:33.262Z,983.13
2018-02-21T12:01:32.349Z,982.77
2018-02-21T12:02:32.350Z,983.00
2018-02-21T12:03:32.407Z,983.00
2018-02-21T12:04:32.381Z,983.20
2018-02-21T12:05:32.369Z,983.16
2018-02-21T12:06:32.378Z,983.18
2018-02-21T12:07:32.383Z,983.18
2018-02-21T12:08:32.449Z,983.24
2018-02-21T12:09:32.395Z,983.17
2018-02-21T12:10:32.400Z,983.18
2018-02-21T12:11:32.408Z,983.21
2018-02-21T12:12:32.503Z,983.26
2018-02-21T12:13:32.476Z,983.20
2018-02-21T12:14:32.428Z,983.23
2018-02-21T12:15:32.432Z,983.23
2018-02-21T12:16:32.440Z,983.20
2018-02-21T12:17:32.445Z,983.25
2018-02-21T12:18:32.515Z,983.23
2018-02-21T12:19:32.457Z,983.15
2018-02-21T12:20:32.464Z,983.23
2018-02-21T12:21:32.470Z,983.20
2018-02-21T12:22:32.475Z,983.22
2018-02-21T12:23:32.518Z,983.21
2018-02-21T12:24:32.492Z,983.22
2018-02-21T12:25:32.495Z,983.17
2018-02-21T12:26:32.501Z,983.19
2018-02-21T12:27:32.508Z,983.17
2018-02-21T12:28:32.921Z,983.11